Airfield :
LOGIN :

Register | Disclaimer

   EN    FR    IT 

 










Legend :    VFR   Marginal VFR   IFR   Intensive IFR   Very Intensive IFR
Visi :
Ceiling :
>= 8 km
>= 3000ft
5 to 8 km
1000 to 3000 ft
1500m to 5 km
500 to 1000 ft
800 to 1500m
200 to 500 ft
< 800m
< 200 ft
Symbols :   Thunderstorms  Fog  Heavy snow  Heavy precipitations  Wind > 20 kt
SIGMETs :     Misc.  Thunderstorms  Icing  Turbulence  Mountain Waves  Volcanic Ashes







- Airport Elevation : 74 ft
- IATA code : MRS
- Download approach charts


LFML - Marseille / Marignane

CURRENT METAR :
  • 202200Z AUTO 07010KT 040V100 CAVOK 19/04 Q1020 BECMG 27010KT

EXPIRED METARs :
  • 202130Z AUTO 07009KT 030V090 CAVOK 19/04 Q1020 BECMG 27010KT
  • 202100Z AUTO 04005KT CAVOK 18/04 Q1020 BECMG 27010KT
  • 202030Z AUTO 02005KT CAVOK 18/04 Q1020 BECMG 27010KT
  • 202000Z AUTO 05005KT 020V080 CAVOK 19/03 Q1020 NOSIG
  • 201930Z AUTO 04006KT CAVOK 19/03 Q1020 NOSIG

TAF TAF LFML
Valid from the 20 at 21:00 until the 22 at 03:00 UTC


202000Z 2021/2203 14010KT CAVOK TX22/2114Z TN15/2104Z
BECMG 2021/2023 27010KT
BECMG 2102/2104 08013KT BKN040
TEMPO 2102/2105 RA
TEMPO 2104/2106 08015G30KT
BECMG 2111/2113 CAVOK
TEMPO 2200/2203 07015G30KT
ATIS : +33 4 42 31 15 15
No reported NOTAMs for that airfield.
2 SIGMETs reported for the Marseille FIR (LFMM) :
 
Severe turbulence
LFMM SIGMET 2 VALID 202230/210230 LFPW
LFMM MARSEILLE FIR/UIR SEV TURB FCST E OF LINE N4330 E00845 - N4115 E00815 SFC/FL080 STNR NC=
Severe turbulence
LFMM SIGMET 1 VALID 201830/202230 LFPW
LFMM MARSEILLE FIR/UIR SEV TURB OBS WI N4330 E00900 - N4315 E00945 - N4115 E00945 - N4115 E00800 - N4330 E00900 SFC/FL080 STNR INTSF=



MET'MAP, your aeronautical weather chart ! - Copyright ORBIFLY December 2007 - Disclaimer

ORBIFLY MET'MAP TEAM :

Programming & Development : Alexandra Zaïnal
Concept & Development : Baudouin d'Aumeries
Co-Development & Prog : Marc-Olivier Méhu
Technical & hardware support : Manuel Goepfert

Contact : metmap@orbifly.com




SOURCES & CREDITS :

   NOAA